Aeroporto :
LOGIN :

Iscrizione | Disclaimer

   EN    FR    IT 

 










Sommario :    VFR   VFR Marginale   IFR   IFR Intensivo   IFR Molto Intensivo
Visibilità : 
Base nubi : 
>= 8 km
>= 3000ft
5 / 8 km
1000 / 3000 ft
1500m / 5 km
500 / 1000 ft
800 / 1500m
200 / 500 ft
< 800m
< 200 ft
Simboli :   Temporali  Nebbia  Neve Forte  Precipitazioni Forti  Vento > 20 kt
SIGMETs :   Varie  Temporali  Ghiacco  Turbolenza  Onda orograficha  Ceneri Vulcaniche






- Altitudine del aeroporto : 27 ft
- Codice IATA : PMI


LEPA - Palma de Mallorca

ULTIMO METAR :
  • 171430Z 26015KT 9999 FEW025 SCT045 15/06 Q1010 NOSIG

METARs OBSOLETI :
  • 171400Z 26018KT 9999 FEW025 SCT045 15/07 Q1010 NOSIG
  • 171330Z 26016KT 9999 FEW025 SCT040 15/06 Q1010 NOSIG
  • 171300Z 26016KT 9999 FEW025 SCT045 15/07 Q1010 NOSIG
  • 171230Z 25018KT 9999 FEW030 SCT050 15/07 Q1010 NOSIG
  • 171200Z 26017KT 230V290 9999 FEW030 BKN050 15/08 Q1011 NOSIG

TAF TAF LEPA
Valido dal 17 a 12 ore il 18 a 12 ore UTC


171100Z 1712/1812 25012KT 9999 FEW030 SCT050 TX16/1713Z TN06/1806Z
TEMPO 1717/1724 24015G25KT
TEMPO 1718/1812 4000 SHRA SCT025TCU BKN030
BECMG 1803/1804 32008KT



MetMap, La meteo Aeronautica in un colpo d'occhio ! - Copyright ORBIFLY Dicembre 2007 - Disclaimer

ORBIFLY MET'MAP TEAM :

Programmazione e sviluppo : Alexandra Zaïnal
Concezione e sviluppo : Baudouin d'Aumeries
Co-Programmazione e sviluppo : Marc-Olivier Méhu
Supporto tecnico e logistico : Manuel Goepfert
Aiuto per la traduzione : Arnaldo La Scala

Contatto : metmap@orbifly.com




FONTI E CREDITI :

   NOAA